Time;durP1;ratioP1;P1;durP2;ratioP2;P2;SDS_P1;SDS_P2;PMS_P1;PMS_P2;Temp;Humidity;BMP_temperature;BMP_pressure;BME280_temperature;BME280_humidity;BME280_pressure;Samples;Min_cycle;Max_cycle;Signal;HPM_P1;HPM_P2
2021/04/29 05:06:20;;;;;;;3.28;2.08;;;18.20;46.70;;;;;;6003949;23;20221;-82
2021/04/29 05:34:41;;;;;;;3.58;1.95;;;18.20;46.50;;;;;;5803337;23;20322;-82
2021/04/29 05:42:18;;;;;;;2.67;2.20;;;18.20;46.40;;;;;;5443597;23;20240;-80
2021/04/29 06:21:06;;;;;;;3.03;1.85;;;18.20;46.70;;;;;;5829654;23;20239;-82
2021/04/29 06:23:36;;;;;;;3.42;2.30;;;18.20;46.70;;;;;;4947021;29;20173;-81
2021/04/29 06:26:07;;;;;;;4.30;2.50;;;18.30;46.90;;;;;;4906455;29;20172;-82
2021/04/29 06:32:03;;;;;;;5.68;2.20;;;18.30;46.50;;;;;;4919208;29;20222;-83
2021/04/29 06:37:24;;;;;;;4.40;2.33;;;18.30;46.60;;;;;;4974480;28;20221;-83
2021/04/29 06:40:14;;;;;;;3.95;2.10;;;18.30;46.40;;;;;;4945560;29;20196;-83
2021/04/29 06:42:47;;;;;;;5.25;2.10;;;18.30;46.10;;;;;;4960561;29;20178;-83
2021/04/29 06:45:43;;;;;;;7.57;2.40;;;18.30;46.20;;;;;;4942904;29;20178;-83
2021/04/29 06:48:16;;;;;;;4.80;2.17;;;18.30;46.10;;;;;;4944838;29;20181;-84
2021/04/29 06:51:31;;;;;;;4.57;2.35;;;18.30;46.30;;;;;;4957474;28;20165;-83
2021/04/29 07:28:02;;;;;;;3.75;2.20;;;18.30;46.70;;;;;;5568638;23;20272;-83
2021/04/29 07:30:39;;;;;;;2.80;2.10;;;18.30;46.60;;;;;;5428715;23;20241;-83
2021/04/29 07:33:32;;;;;;;3.00;2.00;;;18.30;46.30;;;;;;4907021;29;20209;-84
2021/04/29 07:35:58;;;;;;;2.83;2.08;;;18.30;46.00;;;;;;4905444;29;20250;-84
2021/04/29 07:38:31;;;;;;;3.33;2.20;;;18.40;45.90;;;;;;4889216;29;20181;-85
2021/04/29 07:40:58;;;;;;;3.95;2.13;;;18.40;45.90;;;;;;4889744;29;20179;-85
2021/04/29 07:43:26;;;;;;;3.25;2.05;;;18.40;46.00;;;;;;4920398;29;20179;-85
2021/04/29 07:45:55;;;;;;;4.00;2.25;;;18.40;45.50;;;;;;4889725;29;20178;-85
2021/04/29 07:48:24;;;;;;;2.90;2.20;;;18.40;45.80;;;;;;4910542;29;20229;-85
2021/04/29 07:50:56;;;;;;;3.70;1.98;;;18.40;45.70;;;;;;4907387;29;20291;-83
2021/04/29 07:53:34;;;;;;;5.35;2.00;;;18.40;46.00;;;;;;4894147;29;20258;-84
2021/04/29 07:56:19;;;;;;;2.83;2.08;;;18.40;45.60;;;;;;4910981;29;20230;-83
2021/04/29 07:58:52;;;;;;;3.30;2.10;;;18.30;46.00;;;;;;4927274;29;20171;-83
2021/04/29 08:01:25;;;;;;;3.65;1.98;;;18.30;46.40;;;;;;4907046;29;20183;-83
2021/04/29 08:03:56;;;;;;;2.85;1.80;;;18.30;45.50;;;;;;4908888;29;20238;-84
2021/04/29 08:06:33;;;;;;;2.42;1.98;;;18.40;46.00;;;;;;4904803;29;20275;-83
2021/04/29 08:09:07;;;;;;;2.53;1.73;;;18.40;45.40;;;;;;4889233;29;20270;-83
2021/04/29 08:11:34;;;;;;;3.22;1.92;;;18.30;46.10;;;;;;4886811;29;20219;-84
2021/04/29 08:14:08;;;;;;;2.53;2.00;;;18.30;46.50;;;;;;4861079;29;20634;-83
2021/04/29 08:16:36;;;;;;;2.83;2.00;;;18.30;46.00;;;;;;4917582;29;20182;-83
2021/04/29 08:19:08;;;;;;;2.88;1.90;;;18.30;46.60;;;;;;4890833;29;20187;-83
2021/04/29 08:21:42;;;;;;;2.60;2.00;;;18.30;45.70;;;;;;4893918;29;20298;-83
2021/04/29 08:24:10;;;;;;;3.30;1.80;;;18.40;45.90;;;;;;4893317;29;20219;-83
2021/04/29 08:26:37;;;;;;;2.70;2.00;;;18.30;46.20;;;;;;4891011;29;20634;-83
2021/04/29 08:29:04;;;;;;;3.08;2.20;;;18.40;45.90;;;;;;4913139;29;20267;-83
2021/04/29 08:31:31;;;;;;;6.57;2.05;;;18.30;46.20;;;;;;4883153;29;20314;-83
2021/04/29 08:34:06;;;;;;;2.78;1.83;;;18.30;45.80;;;;;;4877091;29;20184;-84
2021/04/29 08:36:33;;;;;;;3.25;2.15;;;18.40;45.90;;;;;;4897133;29;20200;-83
2021/04/29 08:39:03;;;;;;;7.55;2.30;;;18.40;46.50;;;;;;4919342;29;20185;-83
2021/04/29 08:41:30;;;;;;;5.85;2.10;;;18.30;46.70;;;;;;4917783;29;20189;-84
2021/04/29 08:43:59;;;;;;;4.47;2.33;;;18.30;46.60;;;;;;4923558;29;20165;-84
2021/04/29 08:46:39;;;;;;;4.85;2.20;;;18.30;46.40;;;;;;4915610;29;20162;-83
2021/04/29 08:49:16;;;;;;;4.30;2.30;;;18.30;46.60;;;;;;4919496;29;20159;-84
2021/04/29 08:51:45;;;;;;;6.57;2.30;;;18.40;46.70;;;;;;4848419;29;20225;-85
2021/04/29 08:54:17;;;;;;;6.55;2.40;;;18.30;46.20;;;;;;4888494;29;20215;-84
2021/04/29 10:04:59;;;;;;;7.07;2.28;;;18.60;45.30;;;;;;5569227;23;20309;-84
2021/04/29 10:07:33;;;;;;;4.65;2.00;;;18.60;45.20;;;;;;4916745;29;20178;-84
2021/04/29 10:10:03;;;;;;;5.65;2.38;;;18.60;45.50;;;;;;4902741;29;20161;-82
2021/04/29 10:12:29;;;;;;;7.53;2.30;;;18.60;45.60;;;;;;4932691;29;20604;-84
2021/04/29 10:14:57;;;;;;;5.30;2.28;;;18.60;45.80;;;;;;4914442;29;20166;-85
2021/04/29 10:17:23;;;;;;;5.07;2.20;;;18.50;45.80;;;;;;4914046;29;20181;-82
2021/04/29 10:19:58;;;;;;;4.13;2.20;;;18.60;45.30;;;;;;4913663;29;20186;-84
2021/04/29 10:22:27;;;;;;;3.30;1.90;;;18.60;45.10;;;;;;4897854;29;20170;-83
2021/04/29 10:25:04;;;;;;;5.18;2.30;;;18.60;44.90;;;;;;4913188;29;20205;-84
2021/04/29 10:27:31;;;;;;;5.07;2.20;;;18.60;45.10;;;;;;4913331;29;20173;-82
2021/04/29 10:34:15;;;;;;;3.70;1.95;;;18.70;44.90;;;;;;4945247;29;20214;-84
2021/04/29 10:36:48;;;;;;;4.18;2.13;;;18.70;44.80;;;;;;4928994;29;20194;-85
2021/04/29 10:39:59;;;;;;;3.78;1.98;;;18.60;45.20;;;;;;4899228;29;20166;-83
2021/04/29 10:42:45;;;;;;;10.27;2.30;;;18.70;45.00;;;;;;4946510;29;20174;-84
2021/04/29 10:45:14;;;;;;;5.43;1.98;;;18.70;44.90;;;;;;4914212;29;20556;-83
2021/04/29 10:47:48;;;;;;;6.82;2.53;;;18.70;44.90;;;;;;4901487;29;20174;-84
2021/04/29 10:50:26;;;;;;;10.98;2.42;;;18.60;45.50;;;;;;4931358;29;20240;-82
2021/04/29 10:52:59;;;;;;;5.45;2.15;;;18.60;45.50;;;;;;4913587;29;20194;-84
2021/04/29 10:55:44;;;;;;;5.70;2.25;;;18.60;44.80;;;;;;4879150;29;20174;-82
2021/04/29 11:01:44;;;;;;;5.93;2.38;;;18.70;45.30;;;;;;4934303;29;20166;-84
2021/04/29 11:04:14;;;;;;;4.18;2.10;;;18.70;44.80;;;;;;4890784;29;20223;-85
2021/04/29 11:24:52;;;;;;;3.17;2.28;;;18.70;45.50;;;;;;5972703;23;20186;-84
2021/04/29 11:27:45;;;;;;;6.72;2.17;;;18.70;44.60;;;;;;4935593;29;20205;-85
2021/04/29 11:30:16;;;;;;;4.65;2.03;;;18.70;44.60;;;;;;4920569;29;20199;-83
2021/04/29 11:33:04;;;;;;;3.00;2.13;;;18.70;44.80;;;;;;4882520;29;20273;-82
2021/04/29 11:35:34;;;;;;;4.28;2.47;;;18.70;44.50;;;;;;4899845;29;20196;-82
2021/04/29 11:38:04;;;;;;;4.13;2.20;;;18.60;44.90;;;;;;4898063;29;20282;-81
2021/04/29 11:40:39;;;;;;;3.92;2.00;;;18.60;44.90;;;;;;4887527;29;20281;-82
2021/04/29 11:43:05;;;;;;;7.70;2.50;;;18.60;45.00;;;;;;4888995;29;20190;-84
2021/04/29 11:45:42;;;;;;;8.35;2.28;;;18.70;44.50;;;;;;4890104;29;20186;-82
2021/04/29 11:48:10;;;;;;;8.27;2.72;;;18.70;44.70;;;;;;4905065;29;20315;-82
2021/04/29 11:50:58;;;;;;;8.90;2.58;;;18.60;44.90;;;;;;4904949;29;20177;-82
2021/04/29 11:53:34;;;;;;;13.05;2.95;;;18.70;44.80;;;;;;4904825;29;20187;-82
2021/04/29 12:30:03;;;;;;;5.80;2.35;;;18.70;44.60;;;;;;5611542;23;20236;-83
2021/04/29 12:32:51;;;;;;;3.97;2.10;;;18.70;44.60;;;;;;4945335;29;20204;-84
2021/04/29 12:35:36;;;;;;;8.32;2.55;;;18.70;44.20;;;;;;4976996;28;20237;-84
2021/04/29 12:38:14;;;;;;;8.45;2.42;;;18.70;44.50;;;;;;4959945;29;20660;-84
2021/04/29 12:41:07;;;;;;;6.07;2.17;;;18.70;44.80;;;;;;4962658;29;20268;-83
2021/04/29 12:43:38;;;;;;;5.82;2.42;;;18.70;44.40;;;;;;4961149;29;20169;-83
2021/04/29 12:46:07;;;;;;;2.55;1.90;;;18.80;44.70;;;;;;4960765;29;20163;-83
2021/04/29 12:48:40;;;;;;;5.47;2.08;;;18.80;44.00;;;;;;4959153;29;20184;-83
2021/04/29 12:51:29;;;;;;;7.85;2.20;;;18.70;44.10;;;;;;4962362;29;20165;-83
2021/04/29 12:54:10;;;;;;;6.45;2.13;;;18.80;44.50;;;;;;4963130;29;20197;-84
2021/04/29 12:56:41;;;;;;;3.15;2.00;;;18.70;44.10;;;;;;4960678;29;20293;-84
2021/04/29 12:59:14;;;;;;;3.78;2.40;;;18.70;44.20;;;;;;4958788;29;20210;-83
2021/04/29 13:01:59;;;;;;;3.55;2.15;;;18.80;44.20;;;;;;4959404;29;20169;-84
2021/04/29 13:04:27;;;;;;;4.63;2.17;;;18.80;44.20;;;;;;4959007;29;20223;-84
2021/04/29 13:06:59;;;;;;;5.60;2.20;;;18.80;43.90;;;;;;4959335;29;20251;-84
2021/04/29 13:09:49;;;;;;;8.95;2.30;;;18.80;44.20;;;;;;4959770;29;20199;-83
2021/04/29 13:12:18;;;;;;;5.43;2.28;;;18.80;44.10;;;;;;4958060;29;20193;-83
2021/04/29 13:15:11;;;;;;;3.83;2.25;;;18.80;44.20;;;;;;4958435;29;20193;-83
2021/04/29 13:18:10;;;;;;;5.18;2.20;;;18.80;44.60;;;;;;4960597;29;20233;-84
2021/04/29 13:20:58;;;;;;;3.80;1.98;;;18.80;43.90;;;;;;4962508;29;20241;-83
2021/04/29 13:23:29;;;;;;;3.45;2.05;;;18.80;44.50;;;;;;4972495;29;20222;-83
2021/04/29 13:26:05;;;;;;;5.85;2.35;;;18.80;44.70;;;;;;4957578;29;20209;-83
2021/04/29 13:28:33;;;;;;;5.65;1.90;;;18.70;44.40;;;;;;4957877;29;20201;-83
2021/04/29 13:31:01;;;;;;;3.42;2.20;;;18.80;44.60;;;;;;4956001;29;20276;-83
2021/04/29 13:33:40;;;;;;;4.28;2.25;;;18.70;44.40;;;;;;4955951;29;20197;-83
2021/04/29 13:36:06;;;;;;;4.97;2.08;;;18.70;44.80;;;;;;4949944;29;20169;-82
2021/04/29 13:38:51;;;;;;;3.92;2.30;;;18.70;44.50;;;;;;4924445;29;20225;-83
2021/04/29 13:41:25;;;;;;;3.38;2.30;;;18.70;44.70;;;;;;4911557;29;20185;-83
2021/04/29 16:04:22;;;;;;;4.85;2.15;;;19.10;43.90;;;;;;4991265;23;20260;-83
2021/04/29 16:06:49;;;;;;;4.93;2.17;;;19.10;45.10;;;;;;4921402;28;20270;-82
2021/04/29 16:09:20;;;;;;;3.42;1.95;;;19.10;45.30;;;;;;4948606;28;20258;-82
2021/04/29 16:11:50;;;;;;;5.22;2.00;;;19.10;45.00;;;;;;4936114;28;20215;-82
2021/04/29 16:14:18;;;;;;;4.85;2.08;;;19.20;44.70;;;;;;4955545;28;20161;-80
2021/04/29 16:16:44;;;;;;;4.13;2.30;;;19.20;44.90;;;;;;4949107;29;20536;-81
2021/04/29 16:19:11;;;;;;;4.25;2.20;;;19.20;44.90;;;;;;4949046;28;20168;-82
2021/04/29 16:21:38;;;;;;;4.70;2.00;;;19.10;44.20;;;;;;4969912;28;20665;-83
2021/04/29 16:24:05;;;;;;;9.40;2.40;;;19.10;44.40;;;;;;4965073;28;20169;-81
2021/04/29 16:26:37;;;;;;;5.07;2.13;;;19.10;44.50;;;;;;4933481;28;20196;-82
2021/04/29 16:29:05;;;;;;;4.68;2.15;;;19.10;45.30;;;;;;4985032;28;20220;-81
2021/04/29 16:31:31;;;;;;;4.97;2.22;;;19.10;44.90;;;;;;4968699;28;20161;-79
2021/04/29 16:33:58;;;;;;;5.70;2.05;;;19.10;45.00;;;;;;4983376;28;20193;-79
2021/04/29 16:36:26;;;;;;;5.50;1.75;;;19.10;44.50;;;;;;4948672;28;20621;-81
2021/04/29 19:25:55;;;;;;;6.28;2.30;;;18.90;48.20;;;;;;4913762;29;20167;-82
2021/04/29 19:32:08;;;;;;;4.80;2.45;;;18.80;48.70;;;;;;4840825;29;20217;-81
2021/04/29 19:38:17;;;;;;;3.83;2.20;;;18.80;48.80;;;;;;4841854;29;20195;-81
2021/04/29 19:41:13;;;;;;;4.20;2.22;;;18.80;48.90;;;;;;4861392;29;20184;-81
2021/04/29 19:54:14;;;;;;;4.88;2.17;;;18.70;50.30;;;;;;4894064;29;20226;-81
